Time;durP1;ratioP1;P1;durP2;ratioP2;P2;SDS_P1;SDS_P2;PMS_P1;PMS_P2;Temp;Humidity;BMP_temperature;BMP_pressure;BME280_temperature;BME280_humidity;BME280_pressure;Samples;Min_cycle;Max_cycle;Signal;HPM_P1;HPM_P2
2024/04/13 00:00:47;;;;;;;1.02;0.50;;;14.40;99.90;;;;;;5388106;26;20015;-73
2024/04/13 00:03:13;;;;;;;0.75;0.40;;;14.40;99.90;;;;;;5395302;26;20071;-74
2024/04/13 00:05:38;;;;;;;5.00;0.38;;;14.40;99.90;;;;;;5395138;26;20017;-74
2024/04/13 00:08:04;;;;;;;0.75;0.30;;;14.30;99.90;;;;;;5395347;26;20102;-73
2024/04/13 00:10:30;;;;;;;0.65;0.28;;;14.30;99.90;;;;;;5394728;26;20027;-74
2024/04/13 00:12:56;;;;;;;1.00;0.40;;;14.40;99.90;;;;;;5390339;26;20004;-73
2024/04/13 00:15:21;;;;;;;1.25;0.43;;;14.40;99.90;;;;;;5397735;26;20523;-73
2024/04/13 00:17:47;;;;;;;2.70;0.50;;;14.40;99.90;;;;;;5394430;26;20011;-73
2024/04/13 00:20:13;;;;;;;0.50;0.30;;;14.30;99.90;;;;;;5392152;26;20000;-73
2024/04/13 00:22:39;;;;;;;1.02;0.60;;;14.30;99.90;;;;;;5394807;26;20028;-73
2024/04/13 00:25:05;;;;;;;1.65;0.40;;;14.30;99.90;;;;;;5397577;26;20747;-73
2024/04/13 00:27:30;;;;;;;1.50;0.60;;;14.30;99.90;;;;;;5390654;26;20324;-73
2024/04/13 00:29:58;;;;;;;1.08;0.40;;;14.20;99.90;;;;;;5390201;26;20010;-73
2024/04/13 00:32:24;;;;;;;0.73;0.30;;;14.20;99.90;;;;;;5387864;26;20115;-74
2024/04/13 00:34:50;;;;;;;0.93;0.38;;;14.20;99.90;;;;;;5398583;26;20034;-72
2024/04/13 00:37:16;;;;;;;1.08;0.50;;;14.20;99.90;;;;;;5386774;26;20010;-74
2024/04/13 00:39:41;;;;;;;2.17;0.60;;;14.20;99.90;;;;;;5392112;26;20051;-74
2024/04/13 00:42:07;;;;;;;1.20;0.50;;;14.10;99.90;;;;;;5395306;26;20014;-73
2024/04/13 00:44:33;;;;;;;1.50;0.45;;;14.10;99.90;;;;;;5395187;26;20018;-73
2024/04/13 00:47:05;;;;;;;1.42;0.45;;;14.10;99.90;;;;;;5390411;26;20012;-73
2024/04/13 00:49:32;;;;;;;0.80;0.40;;;14.00;99.90;;;;;;5395286;26;20347;-74
2024/04/13 00:51:58;;;;;;;1.02;0.45;;;14.00;99.90;;;;;;5389571;26;20034;-74
2024/04/13 00:54:27;;;;;;;2.83;0.47;;;14.00;99.90;;;;;;5391623;26;20438;-73
2024/04/13 00:56:56;;;;;;;0.57;0.28;;;14.00;99.90;;;;;;5393618;26;20072;-73
2024/04/13 00:59:23;;;;;;;4.82;0.75;;;14.00;99.90;;;;;;5394309;26;20075;-74
2024/04/13 01:01:50;;;;;;;2.13;0.60;;;14.00;99.90;;;;;;5391451;26;20518;-73
2024/04/13 01:04:17;;;;;;;0.45;0.22;;;14.00;99.90;;;;;;5389962;26;19996;-75
2024/04/13 01:06:44;;;;;;;1.25;0.52;;;13.90;99.90;;;;;;5393919;26;20004;-76
2024/04/13 01:09:14;;;;;;;4.47;0.80;;;13.90;99.90;;;;;;5393624;26;20015;-74
2024/04/13 01:11:42;;;;;;;2.85;0.77;;;13.90;99.90;;;;;;5394089;26;20000;-73
2024/04/13 01:14:10;;;;;;;3.63;0.50;;;13.80;99.90;;;;;;5404729;26;20078;-74
2024/04/13 01:16:36;;;;;;;4.65;0.70;;;13.80;99.90;;;;;;5390356;26;20024;-73
2024/04/13 01:19:02;;;;;;;0.85;0.38;;;13.70;99.90;;;;;;5396597;26;20102;-73
2024/04/13 01:21:27;;;;;;;3.13;0.60;;;13.70;99.90;;;;;;5395742;26;20003;-74
2024/04/13 01:24:05;;;;;;;2.35;0.68;;;13.70;99.90;;;;;;5389922;26;20019;-73
2024/04/13 01:26:38;;;;;;;0.82;0.50;;;13.70;99.90;;;;;;5391932;26;20027;-73
2024/04/13 01:29:07;;;;;;;1.50;0.82;;;13.60;99.90;;;;;;5396801;26;20011;-73
2024/04/13 01:31:37;;;;;;;1.17;0.60;;;13.60;99.90;;;;;;5405197;26;20082;-73
2024/04/13 01:34:03;;;;;;;2.00;0.50;;;13.60;99.90;;;;;;5404154;26;20007;-73
2024/04/13 01:36:39;;;;;;;1.08;0.45;;;13.60;99.90;;;;;;5396675;26;20003;-73
2024/04/13 01:39:12;;;;;;;2.00;0.60;;;13.60;99.90;;;;;;5393904;26;20008;-74
2024/04/13 01:41:50;;;;;;;1.05;0.50;;;13.50;99.90;;;;;;5401613;26;20091;-73
2024/04/13 01:44:15;;;;;;;3.67;0.45;;;13.50;99.90;;;;;;5395909;26;20024;-73
2024/04/13 01:46:41;;;;;;;3.05;0.65;;;13.50;99.90;;;;;;5400463;26;20456;-73
2024/04/13 01:49:07;;;;;;;4.90;1.05;;;13.50;99.90;;;;;;5403250;26;20008;-73
2024/04/13 01:51:34;;;;;;;2.17;0.55;;;13.40;99.90;;;;;;5405423;26;20000;-73
2024/04/13 01:53:59;;;;;;;0.98;0.50;;;13.40;99.90;;;;;;5392604;26;20371;-73
2024/04/13 01:56:25;;;;;;;1.67;0.68;;;13.40;99.90;;;;;;5402508;26;20000;-74
2024/04/13 01:58:51;;;;;;;1.35;0.63;;;13.40;99.90;;;;;;5397455;26;20000;-74
2024/04/13 02:01:16;;;;;;;3.97;0.50;;;13.40;99.90;;;;;;5403741;26;19999;-73
2024/04/13 02:03:42;;;;;;;2.70;0.60;;;13.40;99.90;;;;;;5402858;26;20003;-73
2024/04/13 02:06:09;;;;;;;1.60;0.90;;;13.40;99.90;;;;;;5401779;26;20014;-74
2024/04/13 02:08:35;;;;;;;1.52;0.60;;;13.40;99.90;;;;;;5401761;26;20035;-73
2024/04/13 02:11:01;;;;;;;1.02;0.75;;;13.40;99.90;;;;;;5400717;26;19996;-72
2024/04/13 02:13:28;;;;;;;2.42;0.68;;;13.30;99.90;;;;;;5400342;26;20548;-73
2024/04/13 02:15:54;;;;;;;3.92;0.60;;;13.30;99.90;;;;;;5397936;26;20353;-73
2024/04/13 02:18:20;;;;;;;1.38;0.60;;;13.20;99.90;;;;;;5393016;26;20012;-74
2024/04/13 02:20:46;;;;;;;2.08;0.68;;;13.30;99.90;;;;;;5402837;26;20320;-73
2024/04/13 02:23:11;;;;;;;2.47;0.73;;;13.20;99.90;;;;;;5400483;26;19999;-72
2024/04/13 02:25:37;;;;;;;1.00;0.43;;;13.20;99.90;;;;;;5397809;26;20019;-73
2024/04/13 02:28:04;;;;;;;2.20;0.60;;;13.20;99.90;;;;;;5398153;26;20000;-73
2024/04/13 02:30:30;;;;;;;0.90;0.40;;;13.20;99.90;;;;;;5398742;26;20010;-74
2024/04/13 02:32:57;;;;;;;2.58;0.60;;;13.10;99.90;;;;;;5394919;26;20023;-73
2024/04/13 02:35:23;;;;;;;1.83;0.60;;;13.10;99.90;;;;;;5408458;26;20439;-73
2024/04/13 02:37:49;;;;;;;2.13;0.50;;;13.00;99.90;;;;;;5395625;26;20015;-74
2024/04/13 02:40:16;;;;;;;4.18;0.60;;;13.00;99.90;;;;;;5401818;26;20459;-75
2024/04/13 02:42:42;;;;;;;1.95;0.65;;;12.90;99.90;;;;;;5401813;26;20007;-73
2024/04/13 02:45:10;;;;;;;1.95;0.52;;;12.90;99.90;;;;;;5388726;26;20020;-73
2024/04/13 02:47:36;;;;;;;3.28;0.60;;;12.90;99.90;;;;;;5393676;26;20026;-73
2024/04/13 02:50:01;;;;;;;1.65;0.63;;;12.90;99.90;;;;;;5392490;26;20522;-73
2024/04/13 02:52:28;;;;;;;2.75;0.70;;;12.90;99.90;;;;;;5395054;26;20011;-73
2024/04/13 02:54:54;;;;;;;2.35;0.60;;;12.90;99.90;;;;;;5393706;26;20007;-73
2024/04/13 02:57:19;;;;;;;2.22;0.57;;;12.90;99.90;;;;;;5394133;26;20015;-73
2024/04/13 02:59:45;;;;;;;2.08;1.00;;;12.80;99.90;;;;;;5393671;26;20054;-74
2024/04/13 03:02:12;;;;;;;3.30;0.85;;;12.80;99.90;;;;;;5395847;26;20027;-72
2024/04/13 03:04:38;;;;;;;1.13;0.68;;;12.80;99.90;;;;;;5394502;26;20484;-73
2024/04/13 03:07:04;;;;;;;2.95;0.70;;;12.80;99.90;;;;;;5395964;26;20000;-72
2024/04/13 03:09:29;;;;;;;3.22;0.60;;;12.80;99.90;;;;;;5399941;26;19999;-73
2024/04/13 03:11:59;;;;;;;1.83;0.57;;;12.70;99.90;;;;;;5399054;26;20011;-74
2024/04/13 03:14:26;;;;;;;3.25;1.33;;;12.70;99.90;;;;;;5395617;26;20475;-73
2024/04/13 03:16:51;;;;;;;4.22;0.75;;;12.70;99.90;;;;;;5394866;26;20007;-73
2024/04/13 03:19:17;;;;;;;2.38;0.70;;;12.70;99.90;;;;;;5399756;26;20015;-73
2024/04/13 03:21:42;;;;;;;3.42;0.70;;;12.60;99.90;;;;;;5399746;26;19999;-73
2024/04/13 03:24:08;;;;;;;3.63;0.90;;;12.60;99.90;;;;;;5392084;26;20072;-73
2024/04/13 03:26:34;;;;;;;1.70;1.00;;;12.50;99.90;;;;;;5394286;26;20462;-74
2024/04/13 03:29:00;;;;;;;1.92;0.68;;;12.50;99.90;;;;;;5393776;26;20000;-73
2024/04/13 03:31:25;;;;;;;3.70;1.02;;;12.50;99.90;;;;;;5400286;26;20126;-73
2024/04/13 03:33:51;;;;;;;2.33;0.98;;;12.40;99.90;;;;;;5392324;26;20000;-73
2024/04/13 03:36:17;;;;;;;4.43;0.70;;;12.50;99.90;;;;;;5398618;26;20011;-73
2024/04/13 03:38:42;;;;;;;3.08;1.20;;;12.40;99.90;;;;;;5398685;26;20480;-73
2024/04/13 03:41:08;;;;;;;4.07;1.33;;;12.50;99.90;;;;;;5393333;26;20004;-73
2024/04/13 03:43:36;;;;;;;3.10;0.80;;;12.40;99.90;;;;;;5393191;26;20072;-74
2024/04/13 03:46:03;;;;;;;2.90;0.50;;;12.40;99.90;;;;;;5393457;26;20015;-73
2024/04/13 03:48:28;;;;;;;3.20;0.80;;;12.40;99.90;;;;;;5395572;26;19996;-74
2024/04/13 03:50:54;;;;;;;2.10;0.90;;;12.40;99.90;;;;;;5399509;26;20019;-73
2024/04/13 03:53:20;;;;;;;3.20;0.90;;;12.30;99.90;;;;;;5391299;26;20008;-73
2024/04/13 03:55:45;;;;;;;1.92;0.70;;;12.30;99.90;;;;;;5388976;26;20087;-75
2024/04/13 03:58:11;;;;;;;3.40;0.98;;;12.30;99.90;;;;;;5397930;26;20333;-73
2024/04/13 04:00:36;;;;;;;4.03;1.15;;;12.30;99.90;;;;;;5393596;26;20411;-73
2024/04/13 04:03:02;;;;;;;5.63;0.80;;;12.30;99.90;;;;;;5394668;26;20008;-73
2024/04/13 04:05:27;;;;;;;1.88;0.80;;;12.30;99.90;;;;;;5395774;26;20451;-73
2024/04/13 04:07:53;;;;;;;1.40;0.70;;;12.30;99.90;;;;;;5393937;26;20069;-73
2024/04/13 04:10:21;;;;;;;1.85;0.77;;;12.30;99.90;;;;;;5395524;26;20344;-72
2024/04/13 04:12:46;;;;;;;2.42;0.82;;;12.20;99.90;;;;;;5387899;26;21147;-73
2024/04/13 04:15:12;;;;;;;2.75;0.95;;;12.20;99.90;;;;;;5390230;26;20011;-73
2024/04/13 04:17:38;;;;;;;2.95;0.70;;;12.20;99.90;;;;;;5393843;26;20004;-73
2024/04/13 04:20:03;;;;;;;2.33;0.85;;;12.20;99.90;;;;;;5394583;26;20393;-73
2024/04/13 04:22:29;;;;;;;1.55;1.00;;;12.20;99.90;;;;;;5393105;26;19995;-73
2024/04/13 04:24:54;;;;;;;3.03;0.95;;;12.10;99.90;;;;;;5392351;26;20343;-73
2024/04/13 04:27:20;;;;;;;3.17;0.90;;;12.10;99.90;;;;;;5393417;26;20332;-73
2024/04/13 04:29:46;;;;;;;2.92;1.00;;;12.10;99.90;;;;;;5393996;26;20022;-72
2024/04/13 04:32:12;;;;;;;3.58;0.98;;;12.10;99.90;;;;;;5388776;26;20000;-73
2024/04/13 04:34:38;;;;;;;3.40;1.33;;;12.10;99.90;;;;;;5396055;26;20003;-73
2024/04/13 04:37:03;;;;;;;6.93;1.00;;;12.10;99.90;;;;;;5391372;26;20015;-73
2024/04/13 04:39:29;;;;;;;1.73;0.98;;;12.10;99.90;;;;;;5389600;26;20044;-73
2024/04/13 04:41:55;;;;;;;2.22;1.25;;;12.10;99.90;;;;;;5389677;26;20004;-73
2024/04/13 04:44:21;;;;;;;1.83;0.88;;;12.10;99.90;;;;;;5393257;26;19996;-73
2024/04/13 04:46:47;;;;;;;4.22;0.90;;;12.10;99.90;;;;;;5382849;26;20014;-74
2024/04/13 04:49:13;;;;;;;3.97;1.27;;;12.10;99.90;;;;;;5387967;26;20027;-74
2024/04/13 04:51:40;;;;;;;4.80;1.63;;;12.00;99.90;;;;;;5389562;26;20456;-72
2024/04/13 04:54:08;;;;;;;4.00;1.10;;;12.00;99.90;;;;;;5399573;26;20027;-73
2024/04/13 04:56:34;;;;;;;2.40;1.10;;;11.90;99.90;;;;;;5386075;26;20014;-74
2024/04/13 04:58:59;;;;;;;1.88;1.25;;;12.00;99.90;;;;;;5392483;26;20000;-73
2024/04/13 05:01:25;;;;;;;2.20;0.82;;;11.90;99.90;;;;;;5387008;26;20514;-74
2024/04/13 05:03:50;;;;;;;5.25;1.02;;;11.90;99.90;;;;;;5398221;26;20000;-74
2024/04/13 05:06:18;;;;;;;2.47;0.90;;;11.90;99.90;;;;;;5395615;26;20004;-73
2024/04/13 05:08:45;;;;;;;4.10;1.65;;;11.90;99.90;;;;;;5399247;26;20019;-73
2024/04/13 05:11:11;;;;;;;12.40;2.25;;;11.90;99.90;;;;;;5428768;26;19995;-73
2024/04/13 05:13:37;;;;;;;2.40;1.10;;;12.00;99.90;;;;;;5386900;26;19996;-73
2024/04/13 05:16:05;;;;;;;4.13;1.30;;;12.00;99.90;;;;;;5402722;26;20017;-74
2024/04/13 05:18:30;;;;;;;2.83;1.05;;;12.10;99.90;;;;;;5393443;26;20458;-74
2024/04/13 05:20:56;;;;;;;1.65;0.90;;;12.10;99.90;;;;;;5390149;26;20090;-73
2024/04/13 05:23:21;;;;;;;3.60;1.40;;;12.10;99.90;;;;;;5401001;26;20010;-73
2024/04/13 05:25:47;;;;;;;2.83;1.15;;;12.10;99.90;;;;;;5390182;26;20001;-74
2024/04/13 05:28:12;;;;;;;4.95;1.70;;;12.20;99.90;;;;;;5392720;26;20047;-73
2024/04/13 05:30:38;;;;;;;3.65;1.08;;;12.20;99.90;;;;;;5381677;26;20327;-73
2024/04/13 05:33:04;;;;;;;2.97;0.98;;;12.30;99.90;;;;;;5400499;26;20003;-74
2024/04/13 05:35:30;;;;;;;2.58;1.05;;;12.30;99.90;;;;;;5391652;26;20071;-75
2024/04/13 05:37:55;;;;;;;1.73;0.93;;;12.40;99.90;;;;;;5392866;26;20011;-74
2024/04/13 05:40:24;;;;;;;2.17;1.27;;;12.40;99.90;;;;;;5396505;26;20012;-73
2024/04/13 05:42:51;;;;;;;2.53;0.98;;;12.50;99.90;;;;;;5394892;26;20007;-74
2024/04/13 05:45:16;;;;;;;2.08;1.15;;;12.60;99.90;;;;;;5393805;26;20010;-74
2024/04/13 05:47:43;;;;;;;3.08;1.17;;;12.60;99.90;;;;;;5392760;26;20336;-74
2024/04/13 05:50:09;;;;;;;3.38;1.15;;;12.70;99.90;;;;;;5396892;26;20080;-73
2024/04/13 05:52:35;;;;;;;4.80;1.30;;;12.80;99.90;;;;;;5387907;26;20492;-74
2024/04/13 05:55:01;;;;;;;2.83;1.17;;;12.90;99.90;;;;;;5429210;26;20364;-74
2024/04/13 05:57:30;;;;;;;2.13;1.25;;;13.00;99.90;;;;;;5390412;26;20324;-73
2024/04/13 05:59:56;;;;;;;1.38;0.90;;;13.20;99.90;;;;;;5392630;26;20009;-73
2024/04/13 06:02:26;;;;;;;2.35;1.00;;;13.30;99.90;;;;;;5391308;26;20004;-74
2024/04/13 06:04:52;;;;;;;2.35;0.90;;;13.60;99.90;;;;;;5398222;26;20007;-75
2024/04/13 06:07:18;;;;;;;4.32;1.13;;;13.80;99.90;;;;;;5399603;26;20010;-74
2024/04/13 06:09:44;;;;;;;5.22;0.73;;;14.00;99.90;;;;;;5393179;26;20328;-74
2024/04/13 06:12:09;;;;;;;2.22;1.13;;;14.10;99.90;;;;;;5394025;26;20023;-73
2024/04/13 06:14:35;;;;;;;1.45;0.70;;;14.40;99.90;;;;;;5392155;26;20449;-73
2024/04/13 06:17:01;;;;;;;2.45;0.90;;;14.80;99.90;;;;;;5395519;26;20004;-74
2024/04/13 06:19:27;;;;;;;2.70;0.73;;;15.30;99.90;;;;;;5396485;26;20078;-74
2024/04/13 06:21:53;;;;;;;2.33;0.80;;;15.70;99.90;;;;;;5395960;26;20006;-74
2024/04/13 06:24:18;;;;;;;3.95;0.90;;;16.10;99.90;;;;;;5398605;26;20004;-73
2024/04/13 06:26:44;;;;;;;2.55;0.70;;;16.30;99.90;;;;;;5395526;26;20003;-74
2024/04/13 06:29:10;;;;;;;2.78;0.50;;;16.50;99.90;;;;;;5400886;26;20317;-73
2024/04/13 06:31:35;;;;;;;2.20;0.70;;;16.60;99.90;;;;;;5399400;26;20432;-74
2024/04/13 06:34:02;;;;;;;1.90;0.85;;;16.80;99.90;;;;;;5394754;26;20040;-73
2024/04/13 06:36:27;;;;;;;2.53;0.98;;;16.80;99.90;;;;;;5389261;26;20001;-74
2024/04/13 06:38:53;;;;;;;1.83;0.52;;;16.80;99.90;;;;;;5394931;26;20014;-75
2024/04/13 06:41:18;;;;;;;2.20;0.80;;;16.90;99.90;;;;;;5402687;26;20807;-73
2024/04/13 06:43:44;;;;;;;3.35;0.80;;;16.90;99.90;;;;;;5397538;26;20447;-74
2024/04/13 06:46:09;;;;;;;2.70;0.60;;;16.90;99.90;;;;;;5399750;26;20011;-74
2024/04/13 06:48:35;;;;;;;1.60;0.70;;;17.10;99.90;;;;;;5393132;26;20004;-74
2024/04/13 06:51:01;;;;;;;3.65;1.08;;;17.40;99.90;;;;;;5395503;26;20008;-74
2024/04/13 06:53:27;;;;;;;3.42;0.60;;;17.40;99.90;;;;;;5407916;26;20463;-73
2024/04/13 06:55:52;;;;;;;2.00;1.00;;;17.30;99.90;;;;;;5396336;26;20000;-74
2024/04/13 06:58:23;;;;;;;1.70;0.70;;;17.30;99.90;;;;;;5392801;26;20027;-73
2024/04/13 07:00:57;;;;;;;;;;;17.40;99.90;;;;;;5386577;26;20019;-74
2024/04/13 07:03:23;;;;;;;1.63;0.80;;;17.40;99.90;;;;;;5393290;26;19932;-74
2024/04/13 07:05:59;;;;;;;2.75;1.15;;;17.30;99.90;;;;;;5396095;26;20004;-74
2024/04/13 07:08:26;;;;;;;3.88;1.15;;;17.10;99.90;;;;;;5395229;26;20004;-73
2024/04/13 07:10:54;;;;;;;2.10;0.80;;;17.00;99.90;;;;;;5396094;26;20073;-74
2024/04/13 07:13:20;;;;;;;2.05;0.82;;;17.10;99.90;;;;;;5394639;26;20011;-73
2024/04/13 07:15:46;;;;;;;2.33;0.98;;;17.00;99.90;;;;;;5403162;26;20459;-72
2024/04/13 07:18:12;;;;;;;3.03;1.00;;;17.00;99.90;;;;;;5397037;26;20012;-74
2024/04/13 07:20:37;;;;;;;2.08;0.80;;;17.10;99.90;;;;;;5396432;26;20010;-75
2024/04/13 07:23:03;;;;;;;2.20;1.02;;;17.20;99.90;;;;;;5390844;26;19996;-73
2024/04/13 07:25:28;;;;;;;2.75;0.80;;;17.20;99.90;;;;;;5398838;26;20035;-73
2024/04/13 07:27:54;;;;;;;3.10;0.98;;;17.20;99.90;;;;;;5390883;26;19999;-73
2024/04/13 07:30:19;;;;;;;6.40;1.13;;;17.30;99.90;;;;;;5393049;26;20073;-72
2024/04/13 07:32:46;;;;;;;2.15;0.68;;;17.40;99.90;;;;;;5386015;26;19996;-73
2024/04/13 07:35:12;;;;;;;3.38;1.35;;;17.40;99.90;;;;;;5401698;26;19999;-72
2024/04/13 07:37:37;;;;;;;3.40;0.98;;;17.30;99.90;;;;;;5396887;26;20000;-73
2024/04/13 07:40:03;;;;;;;2.60;1.13;;;17.30;99.90;;;;;;5391958;26;20004;-73
2024/04/13 07:42:29;;;;;;;3.30;1.13;;;17.40;99.90;;;;;;5392499;26;20019;-73
2024/04/13 07:44:55;;;;;;;2.92;1.30;;;17.40;99.90;;;;;;5392031;26;20023;-73
2024/04/13 07:47:20;;;;;;;3.30;1.00;;;17.40;99.90;;;;;;5400323;26;20440;-73
2024/04/13 07:49:46;;;;;;;1.88;0.77;;;17.40;99.90;;;;;;5396727;26;20331;-74
2024/04/13 07:52:11;;;;;;;7.10;0.90;;;17.50;99.90;;;;;;5397136;26;20351;-73
2024/04/13 07:54:37;;;;;;;5.32;1.27;;;17.50;99.90;;;;;;5389886;26;20000;-74
2024/04/13 07:57:03;;;;;;;2.60;1.17;;;17.60;99.90;;;;;;5387437;26;20440;-73
2024/04/13 07:59:28;;;;;;;3.60;0.93;;;17.70;99.90;;;;;;5399663;26;19999;-73
2024/04/13 08:01:54;;;;;;;3.10;0.88;;;17.80;99.90;;;;;;5393251;26;20039;-74
2024/04/13 08:04:20;;;;;;;2.50;1.17;;;17.90;99.90;;;;;;5395040;26;20835;-73
2024/04/13 08:06:45;;;;;;;4.18;0.90;;;17.90;99.90;;;;;;5393782;26;20072;-74
2024/04/13 08:09:11;;;;;;;5.78;0.82;;;17.90;99.90;;;;;;5394886;26;20080;-73
2024/04/13 08:11:36;;;;;;;9.65;1.30;;;18.00;99.90;;;;;;5385264;26;20452;-73
2024/04/13 08:14:07;;;;;;;2.33;0.98;;;18.10;99.90;;;;;;5395398;26;19999;-74
2024/04/13 08:16:33;;;;;;;6.15;1.00;;;18.30;99.90;;;;;;5394952;26;20007;-74
2024/04/13 08:18:58;;;;;;;2.78;1.00;;;18.40;99.90;;;;;;5396029;26;20454;-73
2024/04/13 08:21:24;;;;;;;2.58;1.10;;;18.60;99.90;;;;;;5397289;26;20011;-73
2024/04/13 08:23:49;;;;;;;2.78;1.08;;;18.60;99.90;;;;;;5390541;26;20015;-74
2024/04/13 08:26:15;;;;;;;5.03;1.30;;;18.70;99.90;;;;;;5397980;26;19995;-73
2024/04/13 08:28:40;;;;;;;2.63;1.20;;;18.80;99.90;;;;;;5392539;26;20015;-73
2024/04/13 08:31:06;;;;;;;1.45;0.90;;;18.90;99.90;;;;;;5403142;26;20012;-73
2024/04/13 08:33:32;;;;;;;5.45;1.17;;;18.90;99.90;;;;;;5401589;26;20036;-74
2024/04/13 08:36:04;;;;;;;4.05;1.23;;;19.00;99.90;;;;;;5397753;26;20015;-73
2024/04/13 08:38:33;;;;;;;1.60;0.63;;;19.20;99.90;;;;;;5407105;26;19996;-73
2024/04/13 08:41:25;;;;;;;5.38;1.88;;;19.20;99.90;;;;;;5405088;26;20004;-74
2024/04/13 08:43:51;;;;;;;3.30;0.82;;;19.30;99.90;;;;;;5396524;26;20018;-74
2024/04/13 08:46:18;;;;;;;9.82;1.00;;;19.40;99.90;;;;;;5398988;26;20004;-74
2024/04/13 08:48:44;;;;;;;2.92;0.70;;;19.40;99.90;;;;;;5397327;26;20000;-74
2024/04/13 08:51:12;;;;;;;2.65;0.80;;;19.50;99.90;;;;;;5389556;26;20001;-74
2024/04/13 08:53:39;;;;;;;2.83;1.23;;;19.50;99.90;;;;;;5392845;26;20428;-74
2024/04/13 08:56:05;;;;;;;2.83;0.80;;;19.60;99.90;;;;;;5391808;26;20000;-73
2024/04/13 08:58:34;;;;;;;3.63;0.82;;;19.70;99.90;;;;;;5400456;26;20018;-73
2024/04/13 09:01:01;;;;;;;2.30;1.08;;;19.80;99.90;;;;;;5397274;26;20007;-73
2024/04/13 09:03:27;;;;;;;3.00;0.88;;;19.90;99.90;;;;;;5391587;26;20011;-74
2024/04/13 09:05:53;;;;;;;4.90;1.05;;;20.00;99.90;;;;;;5391703;26;20371;-74
2024/04/13 09:08:22;;;;;;;1.55;0.68;;;20.00;99.90;;;;;;5407050;26;20054;-73
2024/04/13 09:10:51;;;;;;;2.33;1.00;;;20.10;99.90;;;;;;5392376;26;20496;-75
2024/04/13 09:13:17;;;;;;;1.88;0.65;;;20.10;99.90;;;;;;5396798;26;20018;-73
2024/04/13 09:15:43;;;;;;;3.75;0.90;;;20.20;99.90;;;;;;5397187;26;20000;-74
2024/04/13 09:18:10;;;;;;;6.78;1.05;;;20.20;99.90;;;;;;5395496;26;20018;-73
2024/04/13 09:20:36;;;;;;;2.25;0.70;;;20.20;99.90;;;;;;5400124;26;20042;-73
2024/04/13 09:23:02;;;;;;;5.43;1.13;;;20.30;99.90;;;;;;5400986;26;20003;-74
2024/04/13 09:25:28;;;;;;;3.20;0.90;;;20.30;99.90;;;;;;5398055;26;20004;-74
2024/04/13 09:28:01;;;;;;;3.15;1.10;;;20.40;99.90;;;;;;5392305;26;20044;-74
2024/04/13 09:30:27;;;;;;;5.90;1.48;;;20.40;99.90;;;;;;5386903;26;19996;-73
2024/04/13 09:33:03;;;;;;;3.42;1.50;;;20.50;99.90;;;;;;5391765;26;20004;-74
2024/04/13 09:35:30;;;;;;;2.13;0.98;;;20.40;99.90;;;;;;5397468;26;20119;-73
2024/04/13 09:37:56;;;;;;;5.72;1.38;;;20.30;99.90;;;;;;5404356;26;20000;-74
2024/04/13 09:40:22;;;;;;;3.88;1.48;;;20.40;99.90;;;;;;5407303;26;20042;-74
2024/04/13 09:42:48;;;;;;;4.57;1.60;;;20.40;99.90;;;;;;5398654;26;20486;-74
2024/04/13 09:45:14;;;;;;;3.28;1.40;;;20.40;99.90;;;;;;5398052;26;20457;-75
2024/04/13 09:47:39;;;;;;;4.25;1.50;;;20.50;99.90;;;;;;5402245;26;20050;-73
2024/04/13 09:50:05;;;;;;;3.15;1.30;;;20.50;99.90;;;;;;5396724;26;19999;-74
2024/04/13 09:52:35;;;;;;;6.45;1.95;;;20.60;99.90;;;;;;5403777;26;20082;-73
2024/04/13 09:55:01;;;;;;;4.93;2.10;;;20.60;99.90;;;;;;5378271;26;20000;-73
2024/04/13 09:57:26;;;;;;;3.75;1.83;;;20.80;99.90;;;;;;5403514;26;20031;-77
2024/04/13 09:59:53;;;;;;;7.50;1.77;;;20.70;99.90;;;;;;5406469;26;20351;-74
2024/04/13 10:02:20;;;;;;;5.55;1.92;;;20.80;99.90;;;;;;5390604;26;20053;-74
2024/04/13 10:04:46;;;;;;;5.85;1.77;;;20.80;99.90;;;;;;5412512;26;20454;-73
2024/04/13 10:07:13;;;;;;;3.40;1.95;;;20.80;99.90;;;;;;5403060;26;20329;-74
2024/04/13 10:09:44;;;;;;;6.78;3.22;;;20.90;99.90;;;;;;5392074;26;20336;-75
2024/04/13 10:12:15;;;;;;;5.20;2.28;;;21.00;99.90;;;;;;5387460;26;20000;-74
2024/04/13 10:14:43;;;;;;;6.80;2.60;;;21.00;99.90;;;;;;5403389;26;20085;-73
2024/04/13 10:17:09;;;;;;;7.53;2.80;;;21.10;99.90;;;;;;5393929;26;20036;-73
2024/04/13 10:19:35;;;;;;;9.32;2.80;;;21.20;99.90;;;;;;5397783;26;20038;-73
2024/04/13 10:22:05;;;;;;;6.68;2.85;;;21.30;99.90;;;;;;5393428;26;20003;-73
2024/04/13 10:24:31;;;;;;;5.85;2.97;;;21.20;99.90;;;;;;5405589;26;20014;-73
2024/04/13 10:27:10;;;;;;;7.53;2.70;;;21.20;99.90;;;;;;5391328;26;20000;-76
2024/04/13 10:29:37;;;;;;;6.00;2.80;;;21.30;99.90;;;;;;5400012;26;20014;-74
2024/04/13 10:32:29;;;;;;;12.20;2.88;;;21.30;99.90;;;;;;5377617;26;20008;-75
2024/04/13 10:34:58;;;;;;;11.50;3.70;;;21.40;99.90;;;;;;5394077;26;20474;-73
2024/04/13 10:37:33;;;;;;;8.57;3.70;;;21.50;99.90;;;;;;5408802;26;20010;-73
2024/04/13 10:40:00;;;;;;;8.10;3.17;;;21.50;99.90;;;;;;5391941;26;20076;-74
2024/04/13 10:42:42;;;;;;;7.35;3.38;;;21.50;99.90;;;;;;5392913;26;19995;-73
2024/04/13 10:45:09;;;;;;;7.72;3.20;;;21.60;99.90;;;;;;5395829;26;20012;-73
2024/04/13 10:47:36;;;;;;;6.18;2.58;;;21.60;99.90;;;;;;5413079;26;20011;-73
2024/04/13 10:50:02;;;;;;;8.00;2.75;;;21.60;99.90;;;;;;5398904;26;20080;-75
2024/04/13 10:52:29;;;;;;;5.97;2.95;;;21.70;99.90;;;;;;5406893;26;20007;-72
2024/04/13 10:54:57;;;;;;;6.05;2.88;;;21.80;99.90;;;;;;5393622;26;20472;-74
2024/04/13 10:57:24;;;;;;;7.88;2.95;;;21.80;99.90;;;;;;5399100;26;20062;-73
2024/04/13 10:59:50;;;;;;;5.15;2.45;;;22.00;99.90;;;;;;5391904;26;20510;-74
2024/04/13 11:02:15;;;;;;;7.07;2.75;;;22.00;99.90;;;;;;5397037;26;20043;-75
2024/04/13 11:04:44;;;;;;;9.20;3.45;;;21.90;99.90;;;;;;5382104;26;20004;-73
2024/04/13 11:07:14;;;;;;;7.18;2.92;;;22.00;99.90;;;;;;5400564;26;19999;-70
2024/04/13 11:09:41;;;;;;;6.47;3.20;;;22.00;99.90;;;;;;5392131;26;20015;-73
2024/04/13 11:12:07;;;;;;;7.53;2.40;;;22.10;99.90;;;;;;5400242;26;20004;-73
2024/04/13 11:14:33;;;;;;;7.13;2.72;;;22.20;99.90;;;;;;5394750;26;20003;-72
2024/04/13 11:16:59;;;;;;;5.65;2.55;;;22.20;99.90;;;;;;5394395;26;20400;-72
2024/04/13 11:19:24;;;;;;;4.90;2.38;;;22.20;99.90;;;;;;5389145;26;20060;-73
2024/04/13 11:21:50;;;;;;;6.10;2.15;;;22.20;99.90;;;;;;5399068;26;20581;-73
2024/04/13 11:24:16;;;;;;;13.93;2.97;;;22.20;99.90;;;;;;5395043;26;20024;-72
2024/04/13 11:26:47;;;;;;;9.13;3.10;;;22.20;99.90;;;;;;5397104;26;20451;-75
2024/04/13 11:29:13;;;;;;;7.07;2.13;;;22.30;99.90;;;;;;5400475;26;20035;-75
2024/04/13 11:31:39;;;;;;;9.38;2.58;;;22.30;99.90;;;;;;5393152;26;20012;-73
2024/04/13 11:34:05;;;;;;;6.57;2.15;;;22.40;99.90;;;;;;5374637;26;20022;-74
2024/04/13 11:36:31;;;;;;;5.03;2.25;;;22.40;99.90;;;;;;5393762;26;20011;-75
2024/04/13 11:38:57;;;;;;;6.47;2.72;;;22.40;99.90;;;;;;5395300;26;20015;-76
2024/04/13 11:41:23;;;;;;;6.00;2.63;;;22.40;99.90;;;;;;5399485;26;20012;-75
2024/04/13 11:43:55;;;;;;;4.97;2.92;;;22.40;99.90;;;;;;5405424;26;20011;-76
2024/04/13 11:46:21;;;;;;;10.55;2.75;;;22.30;99.90;;;;;;5395616;26;20012;-73
2024/04/13 11:48:48;;;;;;;5.32;2.33;;;22.40;99.90;;;;;;5397861;26;20019;-74
2024/04/13 11:51:14;;;;;;;4.43;2.20;;;22.50;99.90;;;;;;5399466;26;20524;-74
2024/04/13 11:53:39;;;;;;;4.47;2.22;;;22.60;99.90;;;;;;5396773;26;20004;-74
2024/04/13 11:56:07;;;;;;;6.65;2.50;;;22.70;99.90;;;;;;5399215;26;20023;-75
2024/04/13 11:58:33;;;;;;;6.15;2.53;;;22.80;99.90;;;;;;5398641;26;20028;-73
2024/04/13 12:00:59;;;;;;;4.57;2.15;;;22.70;99.90;;;;;;5399350;26;20003;-73
2024/04/13 12:03:24;;;;;;;4.72;1.80;;;22.70;99.90;;;;;;5401373;26;20004;-74
2024/04/13 12:05:50;;;;;;;5.20;1.58;;;22.70;99.90;;;;;;5395119;26;20098;-75
2024/04/13 12:08:16;;;;;;;4.05;1.65;;;22.70;99.90;;;;;;5400564;26;19996;-74
2024/04/13 12:10:42;;;;;;;2.40;0.93;;;22.80;99.90;;;;;;5393032;26;20014;-74
2024/04/13 12:13:07;;;;;;;3.20;1.20;;;22.80;99.90;;;;;;5393902;26;20018;-74
2024/04/13 12:15:33;;;;;;;2.28;1.08;;;22.80;99.90;;;;;;5402894;26;20007;-76
2024/04/13 12:17:58;;;;;;;1.70;0.80;;;22.90;99.90;;;;;;5407920;26;20023;-73
2024/04/13 12:20:25;;;;;;;1.65;0.90;;;22.90;99.90;;;;;;5407968;26;20003;-74
2024/04/13 12:22:51;;;;;;;5.88;1.05;;;22.80;99.90;;;;;;5401824;26;20750;-74
2024/04/13 12:25:16;;;;;;;2.85;1.20;;;22.70;99.90;;;;;;5411351;26;20014;-73
2024/04/13 12:27:42;;;;;;;6.93;0.98;;;22.80;99.90;;;;;;5399292;26;20004;-74
2024/04/13 12:30:08;;;;;;;3.97;0.93;;;22.80;99.90;;;;;;5382487;26;19997;-75
2024/04/13 12:32:33;;;;;;;1.92;0.85;;;22.70;99.90;;;;;;5407691;26;19996;-72
2024/04/13 12:34:59;;;;;;;2.50;0.90;;;22.70;99.90;;;;;;5408372;26;20015;-74
2024/04/13 12:37:25;;;;;;;4.72;1.65;;;22.70;99.90;;;;;;5376690;26;20015;-76
2024/04/13 12:39:50;;;;;;;2.78;1.50;;;22.70;99.90;;;;;;5387244;26;20017;-75
2024/04/13 12:42:18;;;;;;;3.80;1.30;;;22.60;99.90;;;;;;5385843;26;20004;-74
2024/04/13 12:44:44;;;;;;;8.10;1.40;;;22.60;99.90;;;;;;5380505;26;19996;-74